sensor_id;sensor_type;location;lat;lon;timestamp;P1;durP1;ratioP1;P2;durP2;ratioP2
54899;SDS011;40801;41.924;25.562;2023-08-06T00:02:17;9.38;;;8.45;;
54899;SDS011;40801;41.924;25.562;2023-08-06T00:04:42;8.10;;;7.60;;
54899;SDS011;40801;41.924;25.562;2023-08-06T00:07:07;9.02;;;8.13;;
54899;SDS011;40801;41.924;25.562;2023-08-06T00:09:33;8.85;;;8.13;;
54899;SDS011;40801;41.924;25.562;2023-08-06T00:11:58;9.02;;;8.23;;
54899;SDS011;40801;41.924;25.562;2023-08-06T00:14:24;9.30;;;8.48;;
54899;SDS011;40801;41.924;25.562;2023-08-06T00:16:49;9.02;;;8.18;;
54899;SDS011;40801;41.924;25.562;2023-08-06T00:19:14;9.25;;;8.30;;
54899;SDS011;40801;41.924;25.562;2023-08-06T00:21:40;9.23;;;8.40;;
54899;SDS011;40801;41.924;25.562;2023-08-06T00:24:05;9.82;;;8.82;;
54899;SDS011;40801;41.924;25.562;2023-08-06T00:26:30;8.70;;;7.93;;
54899;SDS011;40801;41.924;25.562;2023-08-06T00:28:56;9.43;;;8.50;;
54899;SDS011;40801;41.924;25.562;2023-08-06T00:31:21;8.90;;;8.20;;
54899;SDS011;40801;41.924;25.562;2023-08-06T00:33:47;9.85;;;9.05;;
54899;SDS011;40801;41.924;25.562;2023-08-06T00:36:12;9.20;;;8.38;;
54899;SDS011;40801;41.924;25.562;2023-08-06T00:38:56;9.38;;;8.48;;
54899;SDS011;40801;41.924;25.562;2023-08-06T00:41:21;8.63;;;7.80;;
54899;SDS011;40801;41.924;25.562;2023-08-06T00:43:47;12.55;;;10.07;;
54899;SDS011;40801;41.924;25.562;2023-08-06T00:46:13;9.50;;;8.80;;
54899;SDS011;40801;41.924;25.562;2023-08-06T00:48:39;8.85;;;8.18;;
54899;SDS011;40801;41.924;25.562;2023-08-06T00:51:05;9.45;;;8.57;;
54899;SDS011;40801;41.924;25.562;2023-08-06T00:53:31;9.50;;;8.65;;
54899;SDS011;40801;41.924;25.562;2023-08-06T00:55:56;9.50;;;8.55;;
54899;SDS011;40801;41.924;25.562;2023-08-06T00:58:23;10.45;;;7.85;;
54899;SDS011;40801;41.924;25.562;2023-08-06T01:00:49;10.15;;;9.02;;
54899;SDS011;40801;41.924;25.562;2023-08-06T01:03:14;10.50;;;9.57;;
54899;SDS011;40801;41.924;25.562;2023-08-06T01:05:40;10.75;;;9.23;;
54899;SDS011;40801;41.924;25.562;2023-08-06T01:08:22;9.63;;;8.93;;
54899;SDS011;40801;41.924;25.562;2023-08-06T01:11:02;10.60;;;9.70;;
54899;SDS011;40801;41.924;25.562;2023-08-06T01:13:47;11.15;;;9.70;;
54899;SDS011;40801;41.924;25.562;2023-08-06T01:16:17;10.55;;;9.65;;
54899;SDS011;40801;41.924;25.562;2023-08-06T01:18:43;10.57;;;9.55;;
54899;SDS011;40801;41.924;25.562;2023-08-06T01:21:17;9.73;;;9.03;;
54899;SDS011;40801;41.924;25.562;2023-08-06T01:23:44;10.30;;;8.63;;
54899;SDS011;40801;41.924;25.562;2023-08-06T01:29:11;11.05;;;10.00;;
54899;SDS011;40801;41.924;25.562;2023-08-06T01:31:38;10.98;;;9.82;;
54899;SDS011;40801;41.924;25.562;2023-08-06T01:34:07;11.70;;;9.40;;
54899;SDS011;40801;41.924;25.562;2023-08-06T01:36:38;10.70;;;9.68;;
54899;SDS011;40801;41.924;25.562;2023-08-06T01:39:05;10.57;;;9.75;;
54899;SDS011;40801;41.924;25.562;2023-08-06T01:41:30;10.70;;;10.00;;
54899;SDS011;40801;41.924;25.562;2023-08-06T01:43:56;9.65;;;8.70;;
54899;SDS011;40801;41.924;25.562;2023-08-06T01:46:21;9.20;;;8.50;;
54899;SDS011;40801;41.924;25.562;2023-08-06T01:48:46;10.73;;;9.85;;
54899;SDS011;40801;41.924;25.562;2023-08-06T01:51:12;10.18;;;9.38;;
54899;SDS011;40801;41.924;25.562;2023-08-06T01:53:37;10.50;;;9.70;;
54899;SDS011;40801;41.924;25.562;2023-08-06T01:56:03;10.73;;;9.48;;
54899;SDS011;40801;41.924;25.562;2023-08-06T01:58:28;10.85;;;9.95;;
54899;SDS011;40801;41.924;25.562;2023-08-06T02:00:54;11.15;;;10.25;;
54899;SDS011;40801;41.924;25.562;2023-08-06T02:03:19;10.63;;;9.75;;
54899;SDS011;40801;41.924;25.562;2023-08-06T02:05:44;11.85;;;10.38;;
54899;SDS011;40801;41.924;25.562;2023-08-06T02:08:10;10.00;;;9.30;;
54899;SDS011;40801;41.924;25.562;2023-08-06T02:10:36;11.57;;;10.55;;
54899;SDS011;40801;41.924;25.562;2023-08-06T02:13:01;11.25;;;10.30;;
54899;SDS011;40801;41.924;25.562;2023-08-06T02:15:27;11.93;;;10.57;;
54899;SDS011;40801;41.924;25.562;2023-08-06T02:17:52;11.73;;;10.65;;
54899;SDS011;40801;41.924;25.562;2023-08-06T02:20:17;10.85;;;9.93;;
54899;SDS011;40801;41.924;25.562;2023-08-06T02:22:43;12.00;;;10.90;;
54899;SDS011;40801;41.924;25.562;2023-08-06T02:25:08;12.20;;;10.98;;
54899;SDS011;40801;41.924;25.562;2023-08-06T02:27:33;12.05;;;10.88;;
54899;SDS011;40801;41.924;25.562;2023-08-06T02:29:59;11.65;;;10.63;;
54899;SDS011;40801;41.924;25.562;2023-08-06T02:32:24;10.43;;;9.50;;
54899;SDS011;40801;41.924;25.562;2023-08-06T02:34:50;11.60;;;10.50;;
54899;SDS011;40801;41.924;25.562;2023-08-06T02:37:15;12.43;;;11.07;;
54899;SDS011;40801;41.924;25.562;2023-08-06T02:39:41;12.60;;;11.45;;
54899;SDS011;40801;41.924;25.562;2023-08-06T02:42:06;12.35;;;11.25;;
54899;SDS011;40801;41.924;25.562;2023-08-06T02:44:33;11.60;;;10.60;;
54899;SDS011;40801;41.924;25.562;2023-08-06T02:46:58;12.20;;;11.20;;
54899;SDS011;40801;41.924;25.562;2023-08-06T02:49:24;12.77;;;11.68;;
54899;SDS011;40801;41.924;25.562;2023-08-06T02:51:50;12.35;;;11.18;;
54899;SDS011;40801;41.924;25.562;2023-08-06T02:54:15;13.18;;;12.02;;
54899;SDS011;40801;41.924;25.562;2023-08-06T02:56:44;12.10;;;11.20;;
54899;SDS011;40801;41.924;25.562;2023-08-06T02:59:12;13.00;;;11.88;;
54899;SDS011;40801;41.924;25.562;2023-08-06T03:01:56;13.98;;;12.70;;
54899;SDS011;40801;41.924;25.562;2023-08-06T03:04:22;12.75;;;11.55;;
54899;SDS011;40801;41.924;25.562;2023-08-06T03:06:49;12.00;;;11.00;;
54899;SDS011;40801;41.924;25.562;2023-08-06T03:09:15;13.57;;;12.07;;
54899;SDS011;40801;41.924;25.562;2023-08-06T03:11:41;13.13;;;11.88;;
54899;SDS011;40801;41.924;25.562;2023-08-06T03:14:06;13.20;;;11.93;;
54899;SDS011;40801;41.924;25.562;2023-08-06T03:16:31;16.98;;;12.60;;
54899;SDS011;40801;41.924;25.562;2023-08-06T03:18:57;14.55;;;13.10;;
54899;SDS011;40801;41.924;25.562;2023-08-06T03:21:22;12.73;;;11.70;;
54899;SDS011;40801;41.924;25.562;2023-08-06T03:23:48;14.23;;;12.68;;
54899;SDS011;40801;41.924;25.562;2023-08-06T03:26:16;13.40;;;12.20;;
54899;SDS011;40801;41.924;25.562;2023-08-06T03:28:41;14.52;;;13.23;;
54899;SDS011;40801;41.924;25.562;2023-08-06T03:31:07;13.70;;;12.35;;
54899;SDS011;40801;41.924;25.562;2023-08-06T03:33:32;14.02;;;12.82;;
54899;SDS011;40801;41.924;25.562;2023-08-06T03:35:58;14.00;;;12.70;;
54899;SDS011;40801;41.924;25.562;2023-08-06T03:38:23;12.27;;;11.18;;
54899;SDS011;40801;41.924;25.562;2023-08-06T03:40:49;15.07;;;13.60;;
54899;SDS011;40801;41.924;25.562;2023-08-06T03:43:14;13.85;;;12.40;;
54899;SDS011;40801;41.924;25.562;2023-08-06T03:45:40;15.05;;;13.75;;
54899;SDS011;40801;41.924;25.562;2023-08-06T03:48:06;13.93;;;12.52;;
54899;SDS011;40801;41.924;25.562;2023-08-06T03:50:31;14.70;;;13.20;;
54899;SDS011;40801;41.924;25.562;2023-08-06T03:52:57;14.48;;;13.23;;
54899;SDS011;40801;41.924;25.562;2023-08-06T03:55:22;16.65;;;15.00;;
54899;SDS011;40801;41.924;25.562;2023-08-06T03:57:48;16.98;;;14.13;;
54899;SDS011;40801;41.924;25.562;2023-08-06T04:00:13;16.90;;;15.20;;
54899;SDS011;40801;41.924;25.562;2023-08-06T04:02:38;16.80;;;14.80;;
54899;SDS011;40801;41.924;25.562;2023-08-06T04:05:04;17.30;;;15.73;;
54899;SDS011;40801;41.924;25.562;2023-08-06T04:07:29;15.45;;;14.13;;
54899;SDS011;40801;41.924;25.562;2023-08-06T04:10:13;15.95;;;14.60;;
54899;SDS011;40801;41.924;25.562;2023-08-06T04:12:39;18.02;;;16.52;;
54899;SDS011;40801;41.924;25.562;2023-08-06T04:15:05;18.98;;;17.08;;
54899;SDS011;40801;41.924;25.562;2023-08-06T04:17:30;16.38;;;14.88;;
54899;SDS011;40801;41.924;25.562;2023-08-06T04:19:56;17.65;;;15.80;;
54899;SDS011;40801;41.924;25.562;2023-08-06T04:22:23;17.23;;;15.43;;
54899;SDS011;40801;41.924;25.562;2023-08-06T04:24:49;16.13;;;14.70;;
54899;SDS011;40801;41.924;25.562;2023-08-06T04:27:14;16.77;;;15.23;;
54899;SDS011;40801;41.924;25.562;2023-08-06T04:29:40;17.92;;;16.42;;
54899;SDS011;40801;41.924;25.562;2023-08-06T04:32:07;17.60;;;15.73;;
54899;SDS011;40801;41.924;25.562;2023-08-06T04:34:34;16.90;;;15.40;;
54899;SDS011;40801;41.924;25.562;2023-08-06T04:37:00;16.35;;;14.88;;
54899;SDS011;40801;41.924;25.562;2023-08-06T04:39:26;16.40;;;15.15;;
54899;SDS011;40801;41.924;25.562;2023-08-06T04:41:51;16.00;;;14.75;;
54899;SDS011;40801;41.924;25.562;2023-08-06T04:44:17;16.67;;;15.10;;
54899;SDS011;40801;41.924;25.562;2023-08-06T04:46:42;16.88;;;15.25;;
54899;SDS011;40801;41.924;25.562;2023-08-06T04:49:08;17.70;;;16.08;;
54899;SDS011;40801;41.924;25.562;2023-08-06T04:51:33;17.77;;;15.57;;
54899;SDS011;40801;41.924;25.562;2023-08-06T04:53:59;16.75;;;15.10;;
54899;SDS011;40801;41.924;25.562;2023-08-06T04:56:24;17.40;;;15.88;;
54899;SDS011;40801;41.924;25.562;2023-08-06T04:58:50;17.25;;;15.65;;
54899;SDS011;40801;41.924;25.562;2023-08-06T05:01:15;18.00;;;16.00;;
54899;SDS011;40801;41.924;25.562;2023-08-06T05:03:41;18.52;;;17.08;;
54899;SDS011;40801;41.924;25.562;2023-08-06T05:06:06;18.48;;;16.73;;
54899;SDS011;40801;41.924;25.562;2023-08-06T05:08:31;19.15;;;16.88;;
54899;SDS011;40801;41.924;25.562;2023-08-06T05:10:57;17.70;;;16.20;;
54899;SDS011;40801;41.924;25.562;2023-08-06T05:13:22;36.97;;;33.53;;
54899;SDS011;40801;41.924;25.562;2023-08-06T05:15:48;18.20;;;16.48;;
54899;SDS011;40801;41.924;25.562;2023-08-06T05:18:13;17.50;;;15.95;;
54899;SDS011;40801;41.924;25.562;2023-08-06T05:20:41;17.55;;;16.00;;
54899;SDS011;40801;41.924;25.562;2023-08-06T05:23:07;16.45;;;14.80;;
54899;SDS011;40801;41.924;25.562;2023-08-06T05:25:36;16.40;;;15.07;;
54899;SDS011;40801;41.924;25.562;2023-08-06T05:28:02;16.40;;;14.75;;
54899;SDS011;40801;41.924;25.562;2023-08-06T05:30:27;16.85;;;15.40;;
54899;SDS011;40801;41.924;25.562;2023-08-06T05:32:53;17.30;;;16.00;;
54899;SDS011;40801;41.924;25.562;2023-08-06T05:35:18;17.42;;;15.82;;
54899;SDS011;40801;41.924;25.562;2023-08-06T05:37:44;17.52;;;16.08;;
54899;SDS011;40801;41.924;25.562;2023-08-06T05:40:09;16.77;;;15.38;;
54899;SDS011;40801;41.924;25.562;2023-08-06T05:42:35;18.70;;;16.98;;
54899;SDS011;40801;41.924;25.562;2023-08-06T05:45:00;19.08;;;17.38;;
54899;SDS011;40801;41.924;25.562;2023-08-06T05:47:25;17.70;;;16.15;;
54899;SDS011;40801;41.924;25.562;2023-08-06T05:49:51;17.33;;;15.80;;
54899;SDS011;40801;41.924;25.562;2023-08-06T05:52:16;19.02;;;17.15;;
54899;SDS011;40801;41.924;25.562;2023-08-06T05:54:41;18.70;;;16.95;;
54899;SDS011;40801;41.924;25.562;2023-08-06T05:57:07;18.27;;;16.65;;
54899;SDS011;40801;41.924;25.562;2023-08-06T05:59:32;16.13;;;14.73;;
54899;SDS011;40801;41.924;25.562;2023-08-06T06:01:58;19.20;;;17.40;;
54899;SDS011;40801;41.924;25.562;2023-08-06T06:04:23;18.83;;;17.13;;
54899;SDS011;40801;41.924;25.562;2023-08-06T06:06:49;17.92;;;16.35;;
54899;SDS011;40801;41.924;25.562;2023-08-06T06:09:15;18.90;;;17.02;;
54899;SDS011;40801;41.924;25.562;2023-08-06T06:11:40;16.77;;;15.18;;
54899;SDS011;40801;41.924;25.562;2023-08-06T06:14:05;17.13;;;15.68;;
54899;SDS011;40801;41.924;25.562;2023-08-06T06:16:31;17.60;;;15.73;;
54899;SDS011;40801;41.924;25.562;2023-08-06T06:18:56;17.00;;;15.68;;
54899;SDS011;40801;41.924;25.562;2023-08-06T06:21:22;15.45;;;14.25;;
54899;SDS011;40801;41.924;25.562;2023-08-06T06:23:48;17.85;;;16.25;;
54899;SDS011;40801;41.924;25.562;2023-08-06T06:26:14;15.50;;;13.82;;
54899;SDS011;40801;41.924;25.562;2023-08-06T06:28:39;15.02;;;13.73;;
54899;SDS011;40801;41.924;25.562;2023-08-06T06:31:05;15.07;;;13.68;;
54899;SDS011;40801;41.924;25.562;2023-08-06T06:33:30;17.05;;;15.45;;
54899;SDS011;40801;41.924;25.562;2023-08-06T06:35:55;16.00;;;14.70;;
54899;SDS011;40801;41.924;25.562;2023-08-06T06:38:21;17.48;;;16.02;;
54899;SDS011;40801;41.924;25.562;2023-08-06T06:41:04;17.17;;;15.48;;
54899;SDS011;40801;41.924;25.562;2023-08-06T06:43:30;16.40;;;14.75;;
54899;SDS011;40801;41.924;25.562;2023-08-06T06:45:56;16.98;;;15.57;;
54899;SDS011;40801;41.924;25.562;2023-08-06T06:48:23;18.45;;;16.83;;
54899;SDS011;40801;41.924;25.562;2023-08-06T06:50:48;17.85;;;16.35;;
54899;SDS011;40801;41.924;25.562;2023-08-06T06:53:14;19.70;;;17.90;;
54899;SDS011;40801;41.924;25.562;2023-08-06T06:55:39;18.35;;;16.85;;
54899;SDS011;40801;41.924;25.562;2023-08-06T06:58:05;17.77;;;16.27;;
54899;SDS011;40801;41.924;25.562;2023-08-06T07:00:30;17.52;;;15.90;;
54899;SDS011;40801;41.924;25.562;2023-08-06T07:02:56;15.98;;;14.73;;
54899;SDS011;40801;41.924;25.562;2023-08-06T07:05:21;16.80;;;15.27;;
54899;SDS011;40801;41.924;25.562;2023-08-06T07:07:46;18.02;;;16.55;;
54899;SDS011;40801;41.924;25.562;2023-08-06T07:10:12;16.67;;;15.07;;
54899;SDS011;40801;41.924;25.562;2023-08-06T07:12:37;18.10;;;16.15;;
54899;SDS011;40801;41.924;25.562;2023-08-06T07:15:06;27.58;;;23.70;;
54899;SDS011;40801;41.924;25.562;2023-08-06T07:17:32;23.92;;;19.02;;
54899;SDS011;40801;41.924;25.562;2023-08-06T07:19:57;14.73;;;13.17;;
54899;SDS011;40801;41.924;25.562;2023-08-06T07:22:22;20.45;;;17.42;;
54899;SDS011;40801;41.924;25.562;2023-08-06T07:24:48;10.52;;;8.88;;
54899;SDS011;40801;41.924;25.562;2023-08-06T07:27:13;9.98;;;7.45;;
54899;SDS011;40801;41.924;25.562;2023-08-06T07:29:39;9.57;;;7.15;;
54899;SDS011;40801;41.924;25.562;2023-08-06T07:32:05;6.57;;;5.97;;
54899;SDS011;40801;41.924;25.562;2023-08-06T07:34:32;11.40;;;10.02;;
54899;SDS011;40801;41.924;25.562;2023-08-06T07:36:57;9.27;;;6.43;;
54899;SDS011;40801;41.924;25.562;2023-08-06T07:39:22;7.10;;;5.57;;
54899;SDS011;40801;41.924;25.562;2023-08-06T07:41:48;4.88;;;4.53;;
54899;SDS011;40801;41.924;25.562;2023-08-06T07:44:14;5.10;;;4.40;;
54899;SDS011;40801;41.924;25.562;2023-08-06T07:46:40;5.68;;;5.13;;
54899;SDS011;40801;41.924;25.562;2023-08-06T07:49:05;5.07;;;4.68;;
54899;SDS011;40801;41.924;25.562;2023-08-06T07:51:30;4.45;;;4.15;;
54899;SDS011;40801;41.924;25.562;2023-08-06T07:53:56;4.70;;;4.40;;
54899;SDS011;40801;41.924;25.562;2023-08-06T07:56:21;4.95;;;4.55;;
54899;SDS011;40801;41.924;25.562;2023-08-06T07:58:47;5.45;;;4.95;;
54899;SDS011;40801;41.924;25.562;2023-08-06T08:01:12;6.18;;;5.57;;
54899;SDS011;40801;41.924;25.562;2023-08-06T08:03:37;5.32;;;4.90;;
54899;SDS011;40801;41.924;25.562;2023-08-06T08:06:03;4.65;;;4.32;;
54899;SDS011;40801;41.924;25.562;2023-08-06T08:08:28;5.13;;;4.72;;
54899;SDS011;40801;41.924;25.562;2023-08-06T08:10:54;4.90;;;4.53;;
54899;SDS011;40801;41.924;25.562;2023-08-06T08:13:20;4.97;;;4.57;;
54899;SDS011;40801;41.924;25.562;2023-08-06T08:15:45;5.88;;;5.35;;
54899;SDS011;40801;41.924;25.562;2023-08-06T08:18:11;6.20;;;5.80;;
54899;SDS011;40801;41.924;25.562;2023-08-06T08:20:36;5.30;;;4.90;;
54899;SDS011;40801;41.924;25.562;2023-08-06T08:23:02;5.28;;;4.85;;
54899;SDS011;40801;41.924;25.562;2023-08-06T08:25:27;3.80;;;3.60;;
54899;SDS011;40801;41.924;25.562;2023-08-06T08:27:54;4.38;;;4.00;;
54899;SDS011;40801;41.924;25.562;2023-08-06T08:30:20;4.15;;;3.85;;
54899;SDS011;40801;41.924;25.562;2023-08-06T08:32:46;3.92;;;3.63;;
54899;SDS011;40801;41.924;25.562;2023-08-06T08:35:12;4.00;;;3.70;;
54899;SDS011;40801;41.924;25.562;2023-08-06T08:37:41;3.78;;;3.50;;
54899;SDS011;40801;41.924;25.562;2023-08-06T08:40:08;4.03;;;3.72;;
54899;SDS011;40801;41.924;25.562;2023-08-06T08:42:34;4.32;;;3.97;;
54899;SDS011;40801;41.924;25.562;2023-08-06T08:45:00;3.25;;;3.05;;
54899;SDS011;40801;41.924;25.562;2023-08-06T08:47:26;3.42;;;3.13;;
54899;SDS011;40801;41.924;25.562;2023-08-06T08:49:53;3.65;;;2.80;;
54899;SDS011;40801;41.924;25.562;2023-08-06T08:52:20;2.92;;;2.67;;
54899;SDS011;40801;41.924;25.562;2023-08-06T08:54:46;3.10;;;2.90;;
54899;SDS011;40801;41.924;25.562;2023-08-06T08:57:16;4.35;;;3.08;;
54899;SDS011;40801;41.924;25.562;2023-08-06T08:59:42;10.27;;;3.10;;
54899;SDS011;40801;41.924;25.562;2023-08-06T09:02:08;3.20;;;3.00;;
54899;SDS011;40801;41.924;25.562;2023-08-06T09:04:37;4.47;;;3.60;;
54899;SDS011;40801;41.924;25.562;2023-08-06T09:07:05;5.15;;;4.68;;
54899;SDS011;40801;41.924;25.562;2023-08-06T09:09:33;6.03;;;5.35;;
54899;SDS011;40801;41.924;25.562;2023-08-06T09:12:05;6.38;;;5.55;;
54899;SDS011;40801;41.924;25.562;2023-08-06T09:14:37;7.00;;;6.22;;
54899;SDS011;40801;41.924;25.562;2023-08-06T09:17:03;9.25;;;8.55;;
54899;SDS011;40801;41.924;25.562;2023-08-06T09:19:29;10.82;;;9.80;;
54899;SDS011;40801;41.924;25.562;2023-08-06T09:21:55;15.48;;;14.13;;
54899;SDS011;40801;41.924;25.562;2023-08-06T09:24:21;18.90;;;17.48;;
54899;SDS011;40801;41.924;25.562;2023-08-06T09:26:47;19.83;;;18.23;;
54899;SDS011;40801;41.924;25.562;2023-08-06T09:29:12;20.48;;;18.75;;
54899;SDS011;40801;41.924;25.562;2023-08-06T09:31:42;25.30;;;22.75;;
54899;SDS011;40801;41.924;25.562;2023-08-06T09:34:12;24.27;;;22.25;;
54899;SDS011;40801;41.924;25.562;2023-08-06T09:36:42;27.02;;;24.73;;
54899;SDS011;40801;41.924;25.562;2023-08-06T09:39:18;26.35;;;24.30;;
54899;SDS011;40801;41.924;25.562;2023-08-06T09:41:44;26.27;;;24.17;;
54899;SDS011;40801;41.924;25.562;2023-08-06T09:44:16;25.00;;;23.00;;
54899;SDS011;40801;41.924;25.562;2023-08-06T09:46:47;25.27;;;23.17;;
54899;SDS011;40801;41.924;25.562;2023-08-06T09:49:20;25.58;;;23.45;;
54899;SDS011;40801;41.924;25.562;2023-08-06T09:51:47;24.77;;;22.88;;
54899;SDS011;40801;41.924;25.562;2023-08-06T09:54:16;24.27;;;22.38;;
54899;SDS011;40801;41.924;25.562;2023-08-06T09:56:42;22.05;;;20.33;;
54899;SDS011;40801;41.924;25.562;2023-08-06T09:59:08;21.92;;;20.20;;
54899;SDS011;40801;41.924;25.562;2023-08-06T10:01:34;21.10;;;19.60;;
54899;SDS011;40801;41.924;25.562;2023-08-06T10:04:00;20.50;;;18.75;;
54899;SDS011;40801;41.924;25.562;2023-08-06T10:06:28;20.30;;;18.67;;
54899;SDS011;40801;41.924;25.562;2023-08-06T10:08:54;21.27;;;19.67;;
54899;SDS011;40801;41.924;25.562;2023-08-06T10:11:20;21.02;;;19.42;;
54899;SDS011;40801;41.924;25.562;2023-08-06T10:13:49;21.73;;;19.67;;
54899;SDS011;40801;41.924;25.562;2023-08-06T10:16:18;21.17;;;19.48;;
54899;SDS011;40801;41.924;25.562;2023-08-06T10:18:44;20.30;;;18.70;;
54899;SDS011;40801;41.924;25.562;2023-08-06T10:21:11;18.90;;;17.50;;
54899;SDS011;40801;41.924;25.562;2023-08-06T10:23:37;18.77;;;17.45;;
54899;SDS011;40801;41.924;25.562;2023-08-06T10:26:05;18.67;;;17.35;;
54899;SDS011;40801;41.924;25.562;2023-08-06T10:28:34;17.17;;;15.63;;
54899;SDS011;40801;41.924;25.562;2023-08-06T10:31:01;16.45;;;15.15;;
54899;SDS011;40801;41.924;25.562;2023-08-06T10:33:50;14.48;;;13.38;;
54899;SDS011;40801;41.924;25.562;2023-08-06T10:36:15;13.85;;;12.85;;
54899;SDS011;40801;41.924;25.562;2023-08-06T10:38:44;13.85;;;12.75;;
54899;SDS011;40801;41.924;25.562;2023-08-06T10:44:08;7.38;;;6.88;;
54899;SDS011;40801;41.924;25.562;2023-08-06T10:46:35;7.00;;;6.50;;
54899;SDS011;40801;41.924;25.562;2023-08-06T10:49:02;6.80;;;6.30;;
54899;SDS011;40801;41.924;25.562;2023-08-06T10:51:29;7.10;;;6.70;;
54899;SDS011;40801;41.924;25.562;2023-08-06T10:53:55;8.02;;;7.53;;
54899;SDS011;40801;41.924;25.562;2023-08-06T10:56:23;8.95;;;8.25;;
54899;SDS011;40801;41.924;25.562;2023-08-06T10:58:51;10.50;;;9.80;;
54899;SDS011;40801;41.924;25.562;2023-08-06T11:03:45;12.55;;;11.65;;
54899;SDS011;40801;41.924;25.562;2023-08-06T11:06:16;14.35;;;13.25;;
54899;SDS011;40801;41.924;25.562;2023-08-06T11:08:47;16.55;;;15.27;;
54899;SDS011;40801;41.924;25.562;2023-08-06T11:11:14;12.77;;;11.98;;
54899;SDS011;40801;41.924;25.562;2023-08-06T11:13:40;13.90;;;12.90;;
54899;SDS011;40801;41.924;25.562;2023-08-06T11:16:07;12.73;;;11.82;;
54899;SDS011;40801;41.924;25.562;2023-08-06T11:18:33;10.45;;;9.65;;
54899;SDS011;40801;41.924;25.562;2023-08-06T11:20:59;9.55;;;8.85;;
54899;SDS011;40801;41.924;25.562;2023-08-06T11:23:29;9.65;;;8.95;;
54899;SDS011;40801;41.924;25.562;2023-08-06T11:25:57;8.65;;;8.13;;
54899;SDS011;40801;41.924;25.562;2023-08-06T11:28:23;8.43;;;7.82;;
54899;SDS011;40801;41.924;25.562;2023-08-06T11:30:50;6.47;;;5.97;;
54899;SDS011;40801;41.924;25.562;2023-08-06T11:33:22;5.28;;;4.97;;
54899;SDS011;40801;41.924;25.562;2023-08-06T11:35:48;5.40;;;5.00;;
54899;SDS011;40801;41.924;25.562;2023-08-06T11:38:14;5.30;;;5.00;;
54899;SDS011;40801;41.924;25.562;2023-08-06T11:40:41;6.53;;;6.00;;
54899;SDS011;40801;41.924;25.562;2023-08-06T11:43:09;6.20;;;5.80;;
54899;SDS011;40801;41.924;25.562;2023-08-06T11:45:34;6.78;;;6.32;;
54899;SDS011;40801;41.924;25.562;2023-08-06T11:48:00;6.28;;;5.88;;
54899;SDS011;40801;41.924;25.562;2023-08-06T11:50:26;6.80;;;6.20;;
54899;SDS011;40801;41.924;25.562;2023-08-06T11:52:52;7.32;;;6.72;;
54899;SDS011;40801;41.924;25.562;2023-08-06T11:55:22;7.57;;;7.07;;
54899;SDS011;40801;41.924;25.562;2023-08-06T11:57:48;6.60;;;6.10;;
54899;SDS011;40801;41.924;25.562;2023-08-06T12:00:14;6.55;;;6.05;;
54899;SDS011;40801;41.924;25.562;2023-08-06T12:02:40;6.78;;;6.38;;
54899;SDS011;40801;41.924;25.562;2023-08-06T12:05:16;6.40;;;5.97;;
54899;SDS011;40801;41.924;25.562;2023-08-06T12:07:47;9.45;;;8.75;;
54899;SDS011;40801;41.924;25.562;2023-08-06T12:10:14;6.88;;;6.38;;
54899;SDS011;40801;41.924;25.562;2023-08-06T12:12:40;7.25;;;6.55;;
54899;SDS011;40801;41.924;25.562;2023-08-06T12:15:06;6.88;;;6.40;;
54899;SDS011;40801;41.924;25.562;2023-08-06T12:17:33;7.25;;;6.68;;
54899;SDS011;40801;41.924;25.562;2023-08-06T12:19:59;7.30;;;6.80;;
54899;SDS011;40801;41.924;25.562;2023-08-06T12:22:25;6.53;;;6.13;;
54899;SDS011;40801;41.924;25.562;2023-08-06T12:24:50;6.75;;;6.30;;
54899;SDS011;40801;41.924;25.562;2023-08-06T12:27:16;7.32;;;6.75;;
54899;SDS011;40801;41.924;25.562;2023-08-06T12:29:45;7.55;;;7.05;;
54899;SDS011;40801;41.924;25.562;2023-08-06T12:32:12;7.32;;;6.65;;
54899;SDS011;40801;41.924;25.562;2023-08-06T12:34:39;7.65;;;7.15;;
54899;SDS011;40801;41.924;25.562;2023-08-06T12:37:05;8.32;;;7.47;;
54899;SDS011;40801;41.924;25.562;2023-08-06T12:39:32;9.27;;;8.40;;
54899;SDS011;40801;41.924;25.562;2023-08-06T12:41:58;8.23;;;7.53;;
54899;SDS011;40801;41.924;25.562;2023-08-06T12:44:24;7.47;;;6.95;;
54899;SDS011;40801;41.924;25.562;2023-08-06T12:46:50;9.15;;;8.35;;
54899;SDS011;40801;41.924;25.562;2023-08-06T12:49:17;7.97;;;7.47;;
54899;SDS011;40801;41.924;25.562;2023-08-06T12:51:43;8.07;;;7.47;;
54899;SDS011;40801;41.924;25.562;2023-08-06T12:54:08;7.93;;;7.32;;
54899;SDS011;40801;41.924;25.562;2023-08-06T12:56:34;8.35;;;7.65;;
54899;SDS011;40801;41.924;25.562;2023-08-06T12:58:59;8.13;;;7.40;;
54899;SDS011;40801;41.924;25.562;2023-08-06T13:01:25;7.57;;;6.97;;
54899;SDS011;40801;41.924;25.562;2023-08-06T13:03:50;8.50;;;7.70;;
54899;SDS011;40801;41.924;25.562;2023-08-06T13:06:15;17.23;;;14.00;;
54899;SDS011;40801;41.924;25.562;2023-08-06T13:08:41;18.08;;;12.73;;
54899;SDS011;40801;41.924;25.562;2023-08-06T13:11:06;8.90;;;8.13;;
54899;SDS011;40801;41.924;25.562;2023-08-06T13:13:31;10.13;;;9.32;;
54899;SDS011;40801;41.924;25.562;2023-08-06T13:15:57;10.77;;;9.77;;
54899;SDS011;40801;41.924;25.562;2023-08-06T13:18:22;10.85;;;9.85;;
54899;SDS011;40801;41.924;25.562;2023-08-06T13:20:47;9.98;;;9.07;;
54899;SDS011;40801;41.924;25.562;2023-08-06T13:23:14;12.52;;;11.52;;
54899;SDS011;40801;41.924;25.562;2023-08-06T13:25:42;10.65;;;9.75;;
54899;SDS011;40801;41.924;25.562;2023-08-06T13:28:07;10.70;;;9.80;;
54899;SDS011;40801;41.924;25.562;2023-08-06T13:30:33;12.27;;;11.18;;
54899;SDS011;40801;41.924;25.562;2023-08-06T13:33:00;11.75;;;10.85;;
54899;SDS011;40801;41.924;25.562;2023-08-06T13:35:26;10.93;;;10.02;;
54899;SDS011;40801;41.924;25.562;2023-08-06T13:37:51;12.45;;;11.27;;
54899;SDS011;40801;41.924;25.562;2023-08-06T13:40:17;11.75;;;10.77;;
54899;SDS011;40801;41.924;25.562;2023-08-06T13:42:43;11.40;;;10.43;;
54899;SDS011;40801;41.924;25.562;2023-08-06T13:45:08;10.73;;;9.93;;
54899;SDS011;40801;41.924;25.562;2023-08-06T13:47:34;11.70;;;10.70;;
54899;SDS011;40801;41.924;25.562;2023-08-06T13:50:00;11.48;;;10.55;;
54899;SDS011;40801;41.924;25.562;2023-08-06T13:52:25;14.02;;;11.68;;
54899;SDS011;40801;41.924;25.562;2023-08-06T13:54:52;12.88;;;11.75;;
54899;SDS011;40801;41.924;25.562;2023-08-06T13:57:17;12.48;;;11.38;;
54899;SDS011;40801;41.924;25.562;2023-08-06T13:59:43;12.88;;;11.82;;
54899;SDS011;40801;41.924;25.562;2023-08-06T14:02:09;13.77;;;12.45;;
54899;SDS011;40801;41.924;25.562;2023-08-06T14:04:35;11.23;;;10.32;;
54899;SDS011;40801;41.924;25.562;2023-08-06T14:07:00;11.23;;;10.38;;
54899;SDS011;40801;41.924;25.562;2023-08-06T14:09:25;11.90;;;11.00;;
54899;SDS011;40801;41.924;25.562;2023-08-06T14:11:51;10.18;;;9.38;;
54899;SDS011;40801;41.924;25.562;2023-08-06T14:14:16;8.70;;;8.00;;
54899;SDS011;40801;41.924;25.562;2023-08-06T14:16:41;14.98;;;13.75;;
54899;SDS011;40801;41.924;25.562;2023-08-06T14:19:07;9.93;;;9.13;;
54899;SDS011;40801;41.924;25.562;2023-08-06T14:21:32;9.75;;;8.80;;
54899;SDS011;40801;41.924;25.562;2023-08-06T14:23:58;13.13;;;12.07;;